Surfside, South Carolina
Current Conditions -  °F | °C
As of 10:15 AM on Tuesday 21 Oct 2014 (Local Time) from KMYR Reporting Station
Clear Clear  
Wind Chill: 70°   Ceiling: Unl
Heat Index: 70°   Visibility: 10mi
Dew Point: 55°   Wind: 6mph
Humidity: 60%   Direction: 310°NW
Pressure: 29.96"   Gusts: NA
Location:  33.6272°N, 78.9693°W
Report Text: KMYR 211415Z 31005KT 10SM CLR 21/13 A2996 RMK AO1
Loading
Personal Weather Stations






























Interactive Weather Map
Tropical Storm Tracking
New forecast layout! Learn more

10-Day Weather Forecast

Advertisements
Track Severe Weather on mobile